createdAt,value
2022-11-22T00:01:20.837Z,94665.13
2022-11-22T00:03:49.141Z,94614.59
2022-11-22T00:06:18.330Z,94650.13
2022-11-22T00:08:49.569Z,94640.97
2022-11-22T00:11:17.831Z,94632.53
2022-11-22T00:13:46.106Z,94656.59
2022-11-22T00:16:15.715Z,94634.50
2022-11-22T00:18:44.021Z,94591.06
2022-11-22T00:21:16.541Z,94508.25
2022-11-22T00:23:44.851Z,94595.63
2022-11-22T00:26:13.149Z,94607.53
2022-11-22T00:28:41.464Z,94618.88
2022-11-22T00:31:09.732Z,94625.72
2022-11-22T00:33:39.383Z,94568.72
2022-11-22T00:36:07.802Z,94629.88
2022-11-22T00:38:36.293Z,94572.81
2022-11-22T00:41:04.584Z,94584.97
2022-11-22T00:43:32.932Z,94583.84
2022-11-22T00:46:01.641Z,94613.44
2022-11-22T00:48:30.027Z,94620.84
2022-11-22T00:50:59.932Z,94633.31
2022-11-22T00:53:28.233Z,94613.25
2022-11-22T00:55:56.478Z,94599.59
2022-11-22T00:58:24.779Z,94628.56
2022-11-22T01:00:56.495Z,94599.53
2022-11-22T01:03:25.126Z,94587.88
2022-11-22T01:05:53.435Z,94582.72
2022-11-22T01:08:23.156Z,94606.56
2022-11-22T01:10:57.597Z,94602.66
2022-11-22T01:13:25.996Z,94612.16
2022-11-22T01:15:54.534Z,94587.63
2022-11-22T01:18:22.805Z,94639.47
2022-11-22T01:20:51.064Z,94608.47
2022-11-22T01:23:19.298Z,94617.22
2022-11-22T01:25:49.017Z,94591.34
2022-11-22T01:28:17.506Z,94605.06
2022-11-22T01:30:45.986Z,94624.19
2022-11-22T01:33:14.264Z,94580.47
2022-11-22T01:35:42.597Z,94632.53
2022-11-22T01:38:11.152Z,94641.50
2022-11-22T01:40:39.923Z,94606.78
2022-11-22T01:43:18.242Z,94629.16
2022-11-22T01:45:54.144Z,94535.09
2022-11-22T01:48:45.481Z,94619.97
2022-11-22T01:51:21.488Z,94609.72
2022-11-22T01:53:51.007Z,94632.47
2022-11-22T01:56:22.261Z,94590.97
2022-11-22T01:58:58.012Z,94614.59
2022-11-22T02:01:26.388Z,94631.66
2022-11-22T02:03:57.946Z,94691.91
2022-11-22T02:06:34.136Z,94589.97
2022-11-22T02:09:09.008Z,94624.09
2022-11-22T02:11:42.878Z,94623.97
2022-11-22T02:14:13.398Z,94600.66
2022-11-22T02:16:43.531Z,94609.72
2022-11-22T02:19:17.461Z,94655.56
2022-11-22T02:21:50.134Z,94621.06
2022-11-22T02:24:23.469Z,94570.56
2022-11-22T02:26:53.099Z,94649.19
2022-11-22T02:29:22.585Z,94637.06
2022-11-22T02:31:50.857Z,94693.97
2022-11-22T02:34:19.124Z,94639.78
2022-11-22T02:36:51.537Z,94650.47
2022-11-22T02:39:27.037Z,94636.25
2022-11-22T02:41:58.062Z,94645.31
2022-11-22T02:44:27.148Z,94657.31
2022-11-22T02:46:56.654Z,94654.59
2022-11-22T02:49:26.411Z,94665.63
2022-11-22T02:51:54.722Z,94650.31
2022-11-22T02:54:23.406Z,94646.41
2022-11-22T02:56:51.935Z,94623.97
2022-11-22T02:59:21.551Z,94742.84
2022-11-22T03:01:50.689Z,94669.91
2022-11-22T03:04:25.532Z,94667.63
2022-11-22T03:06:59.087Z,94640.22
2022-11-22T03:09:29.026Z,94618.03
2022-11-22T03:11:57.849Z,94608.59
2022-11-22T03:14:27.479Z,94677.78
2022-11-22T03:16:56.200Z,94655.91
2022-11-22T03:19:24.444Z,94677.66
2022-11-22T03:21:52.787Z,94709.59
2022-11-22T03:24:21.241Z,94665.56
2022-11-22T03:26:50.564Z,94675.78
2022-11-22T03:29:19.362Z,94633.69
2022-11-22T03:31:48.992Z,94671.66
2022-11-22T03:34:17.666Z,94662.16
2022-11-22T03:36:45.893Z,94656.44
2022-11-22T03:39:14.093Z,94721.28
2022-11-22T03:41:42.347Z,94686.34
2022-11-22T03:44:10.550Z,94665.06
2022-11-22T03:46:38.754Z,94672.22
2022-11-22T03:49:08.355Z,94707.66
2022-11-22T03:51:36.578Z,94700.47
2022-11-22T03:54:04.987Z,94680.84
2022-11-22T03:56:33.259Z,94670.91
2022-11-22T03:59:01.679Z,94734.03
2022-11-22T04:01:30.035Z,94655.91
2022-11-22T04:03:58.286Z,94679.41
2022-11-22T04:06:27.856Z,94669.03
2022-11-22T04:08:56.118Z,94739.78
2022-11-22T04:11:24.359Z,94725.75
2022-11-22T04:14:10.355Z,94712.28
2022-11-22T04:16:38.700Z,94715.09
2022-11-22T04:19:06.993Z,94662.22
2022-11-22T04:21:35.608Z,94713.69
2022-11-22T04:24:24.452Z,94716.00
2022-11-22T04:26:53.369Z,94681.50
2022-11-22T04:29:22.114Z,94758.47
2022-11-22T04:32:09.315Z,94722.72
2022-11-22T04:34:38.603Z,94672.00
2022-11-22T04:37:08.196Z,94666.91
2022-11-22T04:39:36.438Z,94699.63
2022-11-22T04:42:22.243Z,94695.84
2022-11-22T04:44:50.491Z,94655.66
2022-11-22T04:47:33.952Z,94754.59
2022-11-22T04:50:02.537Z,94653.72
2022-11-22T04:52:49.806Z,94706.38
2022-11-22T04:55:17.987Z,94668.31
2022-11-22T04:57:46.206Z,94716.47
2022-11-22T05:00:15.762Z,94665.16
2022-11-22T05:02:44.005Z,94716.75
2022-11-22T05:05:14.330Z,94726.47
2022-11-22T05:07:43.947Z,94718.72
2022-11-22T05:10:12.728Z,94725.88
2022-11-22T05:12:42.838Z,94729.22
2022-11-22T05:15:12.556Z,94683.56
2022-11-22T05:17:40.833Z,94698.16
2022-11-22T05:20:11.139Z,94716.22
2022-11-22T05:22:56.621Z,94724.84
2022-11-22T05:25:26.180Z,94730.00
2022-11-22T05:27:55.248Z,94755.16
2022-11-22T05:30:23.791Z,94766.16
2022-11-22T05:32:51.992Z,94738.09
2022-11-22T05:35:20.194Z,94706.59
2022-11-22T05:37:48.381Z,94656.91
2022-11-22T05:40:16.785Z,94750.97
2022-11-22T05:42:46.399Z,94774.97
2022-11-22T05:45:14.694Z,94692.97
2022-11-22T05:47:43.003Z,94738.47
2022-11-22T05:50:11.378Z,94763.84
2022-11-22T05:52:39.631Z,94738.91
2022-11-22T05:55:08.960Z,94704.31
2022-11-22T05:57:37.282Z,94794.84
2022-11-22T06:00:08.760Z,94704.31
2022-11-22T06:02:40.147Z,94719.72
2022-11-22T06:05:09.551Z,94747.47
2022-11-22T06:07:37.854Z,94806.00
2022-11-22T06:10:06.797Z,94765.00
2022-11-22T06:12:35.052Z,94779.59
2022-11-22T06:15:03.395Z,94772.19
2022-11-22T06:17:33.009Z,94746.13
2022-11-22T06:20:05.716Z,94764.88
2022-11-22T06:22:34.577Z,94746.47
2022-11-22T06:25:02.813Z,94753.97
2022-11-22T06:27:31.386Z,94779.53
2022-11-22T06:29:59.608Z,94782.47
2022-11-22T06:32:27.870Z,94781.34
2022-11-22T06:34:57.431Z,94792.78
2022-11-22T06:37:25.670Z,94758.94
2022-11-22T06:39:53.898Z,94746.84
2022-11-22T06:42:22.094Z,94743.97
2022-11-22T06:44:50.543Z,94808.38
2022-11-22T06:47:18.810Z,94818.69
2022-11-22T06:49:47.187Z,94791.38
2022-11-22T06:52:16.739Z,94784.75
2022-11-22T06:54:44.936Z,94822.50
2022-11-22T06:57:15.225Z,94794.88
2022-11-22T06:59:43.425Z,94794.97
2022-11-22T07:02:14.833Z,94807.16
2022-11-22T07:05:09.313Z,94838.34
2022-11-22T07:07:36.447Z,94882.63
2022-11-22T07:10:05.292Z,94822.63
2022-11-22T07:12:33.550Z,94875.03
2022-11-22T07:15:01.755Z,94825.91
2022-11-22T07:17:29.974Z,94864.59
2022-11-22T07:19:58.169Z,94881.19
2022-11-22T07:22:26.419Z,94863.94
2022-11-22T07:24:56.005Z,94893.75
2022-11-22T07:27:24.207Z,94867.88
2022-11-22T07:29:52.626Z,94903.03
2022-11-22T07:32:20.824Z,94850.16
2022-11-22T07:34:49.008Z,94833.66
2022-11-22T07:37:17.250Z,94875.03
2022-11-22T07:39:45.447Z,94886.06
2022-11-22T07:42:15.090Z,94885.28
2022-11-22T07:44:44.958Z,94921.19
2022-11-22T07:47:15.275Z,94843.75
2022-11-22T07:49:46.656Z,94906.88
2022-11-22T07:52:15.380Z,94897.44
2022-11-22T07:54:43.698Z,94886.28
2022-11-22T07:57:11.985Z,94903.28
2022-11-22T07:59:41.531Z,94954.03
2022-11-22T08:02:12.667Z,94898.53
2022-11-22T08:04:41.141Z,94868.09
2022-11-22T08:07:09.508Z,94996.22
2022-11-22T08:09:38.139Z,94915.13
2022-11-22T08:12:06.703Z,94923.78
2022-11-22T08:14:37.064Z,94904.59
2022-11-22T08:17:06.721Z,94938.06
2022-11-22T08:19:35.778Z,94950.78
2022-11-22T08:22:04.088Z,94899.97
2022-11-22T08:24:33.771Z,94933.34
2022-11-22T08:27:02.044Z,94923.72
2022-11-22T08:29:30.570Z,94882.41
2022-11-22T08:31:58.977Z,94963.16
2022-11-22T08:34:28.550Z,94961.63
2022-11-22T08:36:56.778Z,94958.03
2022-11-22T08:39:25.134Z,94829.69
2022-11-22T08:41:53.327Z,94928.41
2022-11-22T08:44:21.517Z,94960.44
2022-11-22T08:46:49.724Z,94907.66
2022-11-22T08:49:17.943Z,94786.88
2022-11-22T08:51:47.507Z,94957.63
2022-11-22T08:54:16.544Z,94924.44
2022-11-22T08:56:44.773Z,94904.84
2022-11-22T08:59:13.061Z,94950.63
2022-11-22T09:01:41.297Z,94984.16
2022-11-22T09:04:09.730Z,94924.59
2022-11-22T09:09:43.934Z,94885.41
2022-11-22T09:12:12.270Z,94929.06
2022-11-22T09:14:40.653Z,94883.66
2022-11-22T09:17:13.185Z,94917.88
2022-11-22T09:19:44.457Z,94957.19
2022-11-22T09:22:12.668Z,94953.38
2022-11-22T09:24:42.267Z,94953.59
2022-11-22T09:27:10.499Z,94889.53
2022-11-22T09:29:38.716Z,94894.00
2022-11-22T09:32:11.058Z,94934.31
2022-11-22T09:34:39.314Z,94911.63
2022-11-22T09:37:07.543Z,94963.47
2022-11-22T09:39:35.790Z,94953.28
2022-11-22T09:42:43.333Z,95015.50
2022-11-22T09:45:52.587Z,95005.03
2022-11-22T09:48:42.523Z,94947.34
2022-11-22T09:51:15.525Z,94935.41
2022-11-22T09:53:50.287Z,94944.97
2022-11-22T09:56:21.435Z,94992.25
2022-11-22T09:59:00.622Z,94936.47
2022-11-22T10:01:33.211Z,95001.34
2022-11-22T10:04:07.720Z,94976.06
2022-11-22T10:06:39.608Z,94957.66
2022-11-22T10:09:23.844Z,94999.97
2022-11-22T10:11:57.296Z,94959.53
2022-11-22T10:14:39.807Z,94962.63
2022-11-22T10:17:32.019Z,95014.16
2022-11-22T10:20:10.596Z,94989.81
2022-11-22T10:22:39.599Z,94848.91
2022-11-22T10:25:18.428Z,94955.66
2022-11-22T10:27:57.577Z,94997.69
2022-11-22T10:30:37.101Z,94977.69
2022-11-22T10:33:14.418Z,94987.19
2022-11-22T10:36:04.788Z,94957.28
2022-11-22T10:39:19.290Z,95001.09
2022-11-22T10:42:22.576Z,94971.16
2022-11-22T10:45:01.873Z,95041.31
2022-11-22T10:47:50.072Z,94930.75
2022-11-22T10:50:24.337Z,94984.78
2022-11-22T10:53:03.100Z,94940.53
2022-11-22T10:55:50.081Z,94950.59
2022-11-22T10:58:28.549Z,94988.75
2022-11-22T11:01:05.603Z,95006.34
2022-11-22T11:03:39.939Z,94888.38
2022-11-22T11:06:24.447Z,95015.53
2022-11-22T11:11:56.290Z,95047.53
2022-11-22T11:14:32.477Z,95009.50
2022-11-22T11:17:02.776Z,95027.72
2022-11-22T11:19:38.708Z,94976.22
2022-11-22T11:22:30.423Z,95032.06
2022-11-22T11:25:32.765Z,95014.38
2022-11-22T11:28:05.237Z,94970.34
2022-11-22T11:30:45.404Z,95002.09
2022-11-22T11:33:26.907Z,94980.72
2022-11-22T11:36:04.051Z,94940.66
2022-11-22T11:38:36.975Z,94953.03
2022-11-22T11:41:31.636Z,94974.31
2022-11-22T11:44:01.876Z,94899.31
2022-11-22T11:46:45.075Z,94987.28
2022-11-22T11:49:17.721Z,94931.50
2022-11-22T11:51:49.267Z,94949.25
2022-11-22T11:54:20.699Z,94932.13
2022-11-22T11:56:51.916Z,94967.91
2022-11-22T11:59:22.664Z,94941.16
2022-11-22T12:01:58.692Z,95000.03
2022-11-22T12:04:30.714Z,94977.66
2022-11-22T12:07:16.908Z,94912.28
2022-11-22T12:09:47.777Z,94963.97
2022-11-22T12:12:43.578Z,94971.88
2022-11-22T12:15:21.786Z,94951.06
2022-11-22T12:18:01.343Z,94935.63
2022-11-22T12:20:42.763Z,94931.75
2022-11-22T12:23:19.795Z,94919.31
2022-11-22T12:25:48.845Z,94917.84
2022-11-22T12:28:20.615Z,94912.00
2022-11-22T12:30:56.886Z,94860.72
2022-11-22T12:33:31.777Z,94904.97
2022-11-22T12:36:00.285Z,94932.75
2022-11-22T12:38:35.375Z,94898.59
2022-11-22T12:41:09.121Z,94916.16
2022-11-22T12:43:45.870Z,94938.44
2022-11-22T12:46:26.085Z,94925.53
2022-11-22T12:48:58.097Z,94927.97
2022-11-22T12:51:33.925Z,94921.94
2022-11-22T12:54:09.591Z,94905.72
2022-11-22T12:56:45.788Z,94930.25
2022-11-22T12:59:25.235Z,94940.53
2022-11-22T13:02:06.537Z,94915.00
2022-11-22T13:04:50.723Z,94757.88
2022-11-22T13:07:28.646Z,94885.97
2022-11-22T13:10:04.784Z,94868.31
2022-11-22T13:12:37.732Z,94797.47
2022-11-22T13:15:06.997Z,94931.41
2022-11-22T13:17:38.632Z,94856.72
2022-11-22T13:20:14.413Z,94839.81
2022-11-22T13:23:04.017Z,94919.69
2022-11-22T13:25:48.712Z,94888.78
2022-11-22T13:28:21.185Z,94863.09
2022-11-22T13:31:08.793Z,94922.94
2022-11-22T13:33:39.864Z,94901.75
2022-11-22T13:36:39.026Z,94952.16
2022-11-22T13:39:14.282Z,94849.47
2022-11-22T13:41:55.689Z,94904.75
2022-11-22T13:44:39.484Z,94957.94
2022-11-22T13:47:43.068Z,94910.28
2022-11-22T13:51:00.197Z,94910.41
2022-11-22T13:53:32.913Z,94871.47
2022-11-22T13:56:55.473Z,94941.81
2022-11-22T13:59:23.716Z,94911.91
2022-11-22T14:02:22.899Z,94926.28
2022-11-22T14:04:56.636Z,94941.81
2022-11-22T14:07:46.695Z,94867.22
2022-11-22T14:10:34.695Z,94801.72
2022-11-22T14:13:25.395Z,94945.56
2022-11-22T14:16:11.368Z,94904.16
2022-11-22T14:18:55.334Z,94964.63
2022-11-22T14:22:01.718Z,94908.56
2022-11-22T14:24:49.334Z,94941.81
2022-11-22T14:27:36.780Z,94958.47
2022-11-22T14:30:14.931Z,94798.78
2022-11-22T14:32:56.906Z,94876.84
2022-11-22T14:35:37.637Z,94951.91
2022-11-22T14:38:32.071Z,94955.16
2022-11-22T14:41:43.455Z,94948.22
2022-11-22T14:44:17.879Z,94931.16
2022-11-22T14:46:54.659Z,94874.94
2022-11-22T14:49:34.289Z,94884.50
2022-11-22T14:52:03.572Z,94901.63
2022-11-22T14:54:44.560Z,94970.47
2022-11-22T14:57:20.490Z,94950.06
2022-11-22T15:00:13.624Z,94929.53
2022-11-22T15:03:32.292Z,94937.47
2022-11-22T15:09:13.960Z,94906.78
2022-11-22T15:10:03.743Z,94962.09
2022-11-22T15:13:05.793Z,94960.47
2022-11-22T15:59:18.164Z,94953.84
2022-11-22T16:01:47.126Z,94997.56
2022-11-22T16:04:24.299Z,94964.03
2022-11-22T16:06:53.399Z,95007.88
2022-11-22T16:09:30.050Z,94998.81
2022-11-22T16:12:02.288Z,95005.47
2022-11-22T16:14:46.270Z,95031.22
2022-11-22T16:17:30.432Z,95015.28
2022-11-22T16:20:30.226Z,95026.66
2022-11-22T16:23:13.752Z,95002.31
2022-11-22T16:25:45.361Z,94999.28
2022-11-22T16:28:31.056Z,94963.72
2022-11-22T16:31:02.295Z,94899.06
2022-11-22T16:33:31.702Z,95054.06
2022-11-22T16:36:01.824Z,95027.59
2022-11-22T16:38:30.605Z,95002.88
2022-11-22T16:41:00.406Z,95043.38
2022-11-22T16:43:35.629Z,95018.44
2022-11-22T16:46:04.560Z,95006.19
2022-11-22T16:48:33.637Z,94997.78
2022-11-22T16:51:06.514Z,94906.56
2022-11-22T16:53:42.625Z,95020.75
2022-11-22T16:56:19.401Z,95018.50
2022-11-22T16:58:48.835Z,95046.72
2022-11-22T17:01:20.374Z,94851.97
2022-11-22T17:03:50.992Z,95037.91
2022-11-22T17:06:21.910Z,95053.47
2022-11-22T17:08:52.915Z,95025.44
2022-11-22T17:11:25.390Z,95017.91
2022-11-22T17:13:55.023Z,95044.34
2022-11-22T17:16:23.206Z,94965.25
2022-11-22T17:18:52.978Z,95040.28
2022-11-22T17:21:30.341Z,95020.22
2022-11-22T17:24:05.640Z,94996.47
2022-11-22T17:26:35.629Z,95013.31
2022-11-22T17:29:03.880Z,95017.00
2022-11-22T17:31:32.327Z,95025.84
2022-11-22T17:34:00.986Z,95034.47
2022-11-22T17:36:31.417Z,95006.69
2022-11-22T17:39:01.386Z,95057.00
2022-11-22T17:41:30.383Z,95057.69
2022-11-22T17:44:00.345Z,95085.88
2022-11-22T17:46:31.263Z,95047.59
2022-11-22T17:49:01.966Z,95055.28
2022-11-22T17:51:31.148Z,95015.19
2022-11-22T17:53:59.801Z,95044.69
2022-11-22T17:56:30.425Z,95060.13
2022-11-22T17:59:00.091Z,95017.56
2022-11-22T18:01:28.340Z,95078.53
2022-11-22T18:03:56.607Z,95092.06
2022-11-22T18:06:26.156Z,95118.75
2022-11-22T18:08:54.372Z,95078.00
2022-11-22T18:11:22.628Z,95088.09
2022-11-22T18:13:51.255Z,95101.28
2022-11-22T18:16:22.201Z,95116.13
2022-11-22T18:18:58.441Z,95063.81
2022-11-22T18:21:28.938Z,95029.94
2022-11-22T18:23:58.750Z,95059.13
2022-11-22T18:26:42.823Z,95070.84
2022-11-22T18:32:03.265Z,95140.19
2022-11-22T18:34:31.967Z,95088.69
2022-11-22T18:37:02.927Z,95079.91
2022-11-22T18:39:34.106Z,95134.31
2022-11-22T18:42:02.857Z,95142.97
2022-11-22T18:44:31.183Z,95134.38
2022-11-22T18:46:59.406Z,95080.56
2022-11-22T18:49:29.362Z,95080.22
2022-11-22T18:51:58.031Z,95133.41
2022-11-22T18:54:26.459Z,95126.19
2022-11-22T18:56:55.568Z,95132.75
2022-11-22T18:59:24.157Z,95066.44
2022-11-22T19:01:52.356Z,95095.25
2022-11-22T19:04:21.981Z,95080.28
2022-11-22T19:06:59.755Z,95154.56
2022-11-22T19:09:27.961Z,95110.91
2022-11-22T19:11:58.704Z,95134.69
2022-11-22T19:14:31.894Z,95129.19
2022-11-22T19:17:00.843Z,95123.34
2022-11-22T19:19:32.083Z,95123.81
2022-11-22T19:22:02.384Z,95137.34
2022-11-22T19:24:31.035Z,95143.69
2022-11-22T19:26:59.411Z,95111.91
2022-11-22T19:29:27.701Z,95136.38
2022-11-22T19:31:55.999Z,95150.34
2022-11-22T19:34:24.217Z,95105.69
2022-11-22T19:36:52.479Z,95152.78
2022-11-22T19:39:22.064Z,95182.97
2022-11-22T19:41:50.352Z,95131.63
2022-11-22T19:44:18.555Z,95142.56
2022-11-22T19:46:46.910Z,95050.00
2022-11-22T19:49:15.088Z,95102.13
2022-11-22T19:51:43.304Z,95071.50
2022-11-22T19:54:11.745Z,95142.38
2022-11-22T19:56:41.545Z,95161.44
2022-11-22T19:59:12.886Z,95146.47
2022-11-22T20:01:41.238Z,95195.03
2022-11-22T20:04:17.159Z,95171.88
2022-11-22T20:06:49.974Z,95159.50
2022-11-22T20:09:18.830Z,95118.81
2022-11-22T20:11:48.363Z,95116.50
2022-11-22T20:14:16.567Z,95073.81
2022-11-22T20:16:45.004Z,95164.72
2022-11-22T20:19:13.491Z,95156.56
2022-11-22T20:21:42.759Z,95178.91
2022-11-22T20:24:11.368Z,95194.38
2022-11-22T20:26:39.786Z,95151.22
2022-11-22T20:29:15.125Z,95172.88
2022-11-22T20:31:43.352Z,95148.78
2022-11-22T20:34:11.802Z,95175.47
2022-11-22T20:36:39.978Z,95205.59
2022-11-22T20:39:10.401Z,95165.38
2022-11-22T20:41:40.397Z,95152.34
2022-11-22T20:44:13.958Z,95172.22
2022-11-22T20:46:42.478Z,95209.66
2022-11-22T20:49:10.804Z,95194.44
2022-11-22T20:51:39.968Z,95176.19
2022-11-22T20:54:09.011Z,95189.69
2022-11-22T20:56:37.505Z,95149.31
2022-11-22T20:59:06.004Z,95176.13
2022-11-22T21:01:35.742Z,95149.09
2022-11-22T21:04:06.583Z,95166.31
2022-11-22T21:06:35.061Z,95146.78
2022-11-22T21:09:03.474Z,95163.84
2022-11-22T21:11:32.054Z,95185.00
2022-11-22T21:14:00.459Z,95155.38
2022-11-22T21:16:29.920Z,95206.94
2022-11-22T21:19:01.580Z,95131.91
2022-11-22T21:21:31.053Z,95177.09
2022-11-22T21:24:01.063Z,95218.44
2022-11-22T21:26:30.296Z,95238.91
2022-11-22T21:28:59.597Z,95146.94
2022-11-22T21:31:28.432Z,95203.34
2022-11-22T21:33:56.901Z,95202.09
2022-11-22T21:36:26.436Z,95201.63
2022-11-22T21:38:54.615Z,95170.06
2022-11-22T21:41:39.205Z,95167.47
2022-11-22T21:44:08.513Z,95199.28
2022-11-22T21:46:36.704Z,95197.72
2022-11-22T21:49:04.929Z,95166.50
2022-11-22T21:51:34.536Z,95161.94
2022-11-22T21:54:03.828Z,95202.59
2022-11-22T21:56:32.523Z,95214.72
2022-11-22T21:59:01.083Z,95202.69
2022-11-22T22:01:29.937Z,95188.00
2022-11-22T22:03:58.208Z,95204.47
2022-11-22T22:06:26.523Z,95254.16
2022-11-22T22:08:56.567Z,95091.19
2022-11-22T22:11:24.843Z,95218.97
2022-11-22T22:13:55.014Z,95241.69
2022-11-22T22:16:25.806Z,95205.50
2022-11-22T22:18:54.740Z,95193.91
2022-11-22T22:21:22.944Z,95223.88
2022-11-22T22:23:51.234Z,95246.66
2022-11-22T22:26:21.004Z,95257.41
2022-11-22T22:28:49.233Z,95109.56
2022-11-22T22:31:22.049Z,95254.78
2022-11-22T22:33:52.571Z,95197.47
2022-11-22T22:36:21.868Z,95227.22
2022-11-22T22:38:50.512Z,95245.19
2022-11-22T22:41:20.614Z,95247.94
2022-11-22T22:43:50.613Z,95222.63
2022-11-22T22:46:21.025Z,95245.72
2022-11-22T22:48:50.743Z,95267.34
2022-11-22T22:51:21.898Z,95242.28
2022-11-22T22:53:51.151Z,95272.91
2022-11-22T22:56:22.767Z,95040.53
2022-11-22T22:58:55.466Z,95210.09
2022-11-22T23:01:25.927Z,95242.66
2022-11-22T23:03:57.351Z,95230.28
2022-11-22T23:06:27.940Z,95262.97
2022-11-22T23:08:57.530Z,95274.69
2022-11-22T23:11:44.244Z,95267.47
2022-11-22T23:14:13.116Z,95241.25
2022-11-22T23:16:41.836Z,95265.28
2022-11-22T23:19:11.884Z,95242.41
2022-11-22T23:21:40.882Z,95226.94
2022-11-22T23:24:09.927Z,95246.22
2022-11-22T23:26:40.010Z,95161.16
2022-11-22T23:29:08.348Z,95267.53
2022-11-22T23:31:36.609Z,95232.16
2022-11-22T23:34:12.409Z,95206.47
2022-11-22T23:36:41.329Z,95231.78
2022-11-22T23:39:10.324Z,95205.44
2022-11-22T23:41:39.883Z,95283.75
2022-11-22T23:44:08.455Z,95284.06
2022-11-22T23:46:36.674Z,95272.22
2022-11-22T23:49:06.165Z,95265.28
2022-11-22T23:51:36.769Z,95267.50
2022-11-22T23:54:06.977Z,95265.53
2022-11-22T23:56:37.069Z,95223.97
2022-11-22T23:59:06.799Z,95257.38
